Terminal Aerodrome Forecast
Issued by NWS Charleston, WV

Current Version | Previous Version | Text Only | Print | Product List | Glossary Off
Versions: 1 2 3 4 5 6 7 8 9 10 11 12 13 14 15 16 17 18 19 20 21 22 23 24

000
FTUS41 KRLX 190538
TAFPKB
TAF
KPKB 190538Z 1906/2006 00000KT 2SM BR SCT001
     FM190900 00000KT 1/4SM FG VV001
     FM191200 00000KT 1SM BR BKN001
     FM191300 00000KT 4SM BR SCT001
     FM191330 22003KT P6SM FEW250
     FM191500 25006KT P6SM SCT050
     FM200100 VRB02KT P6SM SCT250=

USA.gov is the U.S. government's official web portal to all federal, state and local government web resources and services.